sensor_id;sensor_type;location;lat;lon;timestamp;P1;durP1;ratioP1;P2;durP2;ratioP2
79066;SDS011;68470;50.224;14.348;2023-05-07T00:01:56;16.48;;;9.63;;
79066;SDS011;68470;50.224;14.348;2023-05-07T00:04:22;16.33;;;10.25;;
79066;SDS011;68470;50.224;14.348;2023-05-07T00:06:48;19.52;;;9.40;;
79066;SDS011;68470;50.224;14.348;2023-05-07T00:09:15;18.98;;;9.50;;
79066;SDS011;68470;50.224;14.348;2023-05-07T00:11:45;24.58;;;11.27;;
79066;SDS011;68470;50.224;14.348;2023-05-07T00:14:10;17.65;;;10.05;;
79066;SDS011;68470;50.224;14.348;2023-05-07T00:16:40;25.13;;;10.93;;
79066;SDS011;68470;50.224;14.348;2023-05-07T00:19:06;19.83;;;10.65;;
79066;SDS011;68470;50.224;14.348;2023-05-07T00:21:38;17.33;;;9.45;;
79066;SDS011;68470;50.224;14.348;2023-05-07T00:24:07;19.65;;;9.55;;
79066;SDS011;68470;50.224;14.348;2023-05-07T00:26:37;17.45;;;9.90;;
79066;SDS011;68470;50.224;14.348;2023-05-07T00:29:04;18.83;;;9.35;;
79066;SDS011;68470;50.224;14.348;2023-05-07T00:31:30;18.92;;;10.30;;
79066;SDS011;68470;50.224;14.348;2023-05-07T00:33:55;21.00;;;11.23;;
79066;SDS011;68470;50.224;14.348;2023-05-07T00:36:27;21.25;;;10.40;;
79066;SDS011;68470;50.224;14.348;2023-05-07T00:38:53;18.25;;;10.23;;
79066;SDS011;68470;50.224;14.348;2023-05-07T00:41:26;17.20;;;9.50;;
79066;SDS011;68470;50.224;14.348;2023-05-07T00:43:52;18.27;;;9.70;;
79066;SDS011;68470;50.224;14.348;2023-05-07T00:46:21;20.70;;;10.13;;
79066;SDS011;68470;50.224;14.348;2023-05-07T00:48:48;18.52;;;10.43;;
79066;SDS011;68470;50.224;14.348;2023-05-07T00:51:16;15.88;;;9.15;;
79066;SDS011;68470;50.224;14.348;2023-05-07T00:53:43;19.98;;;9.82;;
79066;SDS011;68470;50.224;14.348;2023-05-07T00:56:13;18.25;;;10.70;;
79066;SDS011;68470;50.224;14.348;2023-05-07T00:58:40;18.23;;;9.52;;
79066;SDS011;68470;50.224;14.348;2023-05-07T01:01:08;18.73;;;9.63;;
79066;SDS011;68470;50.224;14.348;2023-05-07T01:03:34;22.33;;;11.98;;
79066;SDS011;68470;50.224;14.348;2023-05-07T01:06:03;18.55;;;10.43;;
79066;SDS011;68470;50.224;14.348;2023-05-07T01:08:35;19.15;;;9.90;;
79066;SDS011;68470;50.224;14.348;2023-05-07T01:11:02;20.33;;;10.40;;
79066;SDS011;68470;50.224;14.348;2023-05-07T01:13:28;17.45;;;10.43;;
79066;SDS011;68470;50.224;14.348;2023-05-07T01:15:55;18.33;;;10.13;;
79066;SDS011;68470;50.224;14.348;2023-05-07T01:18:25;18.77;;;11.02;;
79066;SDS011;68470;50.224;14.348;2023-05-07T01:20:53;19.63;;;10.40;;
79066;SDS011;68470;50.224;14.348;2023-05-07T01:23:26;18.48;;;9.73;;
79066;SDS011;68470;50.224;14.348;2023-05-07T01:25:53;17.02;;;10.48;;
79066;SDS011;68470;50.224;14.348;2023-05-07T01:28:20;19.27;;;10.35;;
79066;SDS011;68470;50.224;14.348;2023-05-07T01:30:55;18.42;;;9.65;;
79066;SDS011;68470;50.224;14.348;2023-05-07T01:33:33;20.02;;;9.77;;
79066;SDS011;68470;50.224;14.348;2023-05-07T01:36:02;18.65;;;9.73;;
79066;SDS011;68470;50.224;14.348;2023-05-07T01:38:38;14.18;;;8.27;;
79066;SDS011;68470;50.224;14.348;2023-05-07T01:41:10;18.48;;;10.10;;
79066;SDS011;68470;50.224;14.348;2023-05-07T01:43:38;16.60;;;9.13;;
79066;SDS011;68470;50.224;14.348;2023-05-07T01:46:11;13.57;;;7.75;;
79066;SDS011;68470;50.224;14.348;2023-05-07T01:48:40;13.15;;;7.68;;
79066;SDS011;68470;50.224;14.348;2023-05-07T01:51:14;12.15;;;7.22;;
79066;SDS011;68470;50.224;14.348;2023-05-07T01:53:48;13.38;;;7.20;;
79066;SDS011;68470;50.224;14.348;2023-05-07T01:56:18;12.85;;;6.90;;
79066;SDS011;68470;50.224;14.348;2023-05-07T01:58:44;13.75;;;8.02;;
79066;SDS011;68470;50.224;14.348;2023-05-07T02:01:14;14.10;;;7.97;;
79066;SDS011;68470;50.224;14.348;2023-05-07T02:03:41;14.88;;;7.28;;
79066;SDS011;68470;50.224;14.348;2023-05-07T02:06:15;13.07;;;6.78;;
79066;SDS011;68470;50.224;14.348;2023-05-07T02:08:44;14.70;;;7.85;;
79066;SDS011;68470;50.224;14.348;2023-05-07T02:11:20;12.25;;;6.57;;
79066;SDS011;68470;50.224;14.348;2023-05-07T02:13:46;14.55;;;7.63;;
79066;SDS011;68470;50.224;14.348;2023-05-07T02:16:12;15.50;;;7.55;;
79066;SDS011;68470;50.224;14.348;2023-05-07T02:18:42;13.98;;;7.22;;
79066;SDS011;68470;50.224;14.348;2023-05-07T02:21:08;13.63;;;6.97;;
79066;SDS011;68470;50.224;14.348;2023-05-07T02:23:36;14.40;;;6.60;;
79066;SDS011;68470;50.224;14.348;2023-05-07T02:26:03;13.85;;;7.03;;
79066;SDS011;68470;50.224;14.348;2023-05-07T02:28:30;11.65;;;6.10;;
79066;SDS011;68470;50.224;14.348;2023-05-07T02:30:56;13.05;;;6.55;;
79066;SDS011;68470;50.224;14.348;2023-05-07T02:33:23;15.50;;;6.60;;
79066;SDS011;68470;50.224;14.348;2023-05-07T02:35:50;17.45;;;7.43;;
79066;SDS011;68470;50.224;14.348;2023-05-07T02:38:19;12.30;;;5.97;;
79066;SDS011;68470;50.224;14.348;2023-05-07T02:40:46;16.08;;;7.80;;
79066;SDS011;68470;50.224;14.348;2023-05-07T02:43:14;16.02;;;6.40;;
79066;SDS011;68470;50.224;14.348;2023-05-07T02:45:41;13.15;;;6.47;;
79066;SDS011;68470;50.224;14.348;2023-05-07T02:48:08;14.52;;;7.55;;
79066;SDS011;68470;50.224;14.348;2023-05-07T02:50:37;12.00;;;7.10;;
79066;SDS011;68470;50.224;14.348;2023-05-07T02:53:11;13.57;;;6.88;;
79066;SDS011;68470;50.224;14.348;2023-05-07T02:55:37;11.57;;;5.57;;
79066;SDS011;68470;50.224;14.348;2023-05-07T02:58:03;9.57;;;4.50;;
79066;SDS011;68470;50.224;14.348;2023-05-07T03:00:36;15.32;;;7.40;;
79066;SDS011;68470;50.224;14.348;2023-05-07T03:03:02;11.98;;;6.95;;
79066;SDS011;68470;50.224;14.348;2023-05-07T03:05:34;13.88;;;6.78;;
79066;SDS011;68470;50.224;14.348;2023-05-07T03:10:26;13.98;;;6.60;;
79066;SDS011;68470;50.224;14.348;2023-05-07T03:12:55;11.20;;;4.75;;
79066;SDS011;68470;50.224;14.348;2023-05-07T03:15:24;11.07;;;5.75;;
79066;SDS011;68470;50.224;14.348;2023-05-07T03:17:51;15.82;;;7.70;;
79066;SDS011;68470;50.224;14.348;2023-05-07T03:20:17;11.50;;;6.85;;
79066;SDS011;68470;50.224;14.348;2023-05-07T03:22:43;12.93;;;6.75;;
79066;SDS011;68470;50.224;14.348;2023-05-07T03:27:39;14.02;;;5.75;;
79066;SDS011;68470;50.224;14.348;2023-05-07T03:30:11;11.25;;;6.88;;
79066;SDS011;68470;50.224;14.348;2023-05-07T03:32:37;15.45;;;6.03;;
79066;SDS011;68470;50.224;14.348;2023-05-07T03:35:11;11.23;;;7.32;;
79066;SDS011;68470;50.224;14.348;2023-05-07T03:37:37;12.15;;;5.88;;
79066;SDS011;68470;50.224;14.348;2023-05-07T03:40:04;8.25;;;5.35;;
79066;SDS011;68470;50.224;14.348;2023-05-07T03:42:38;12.68;;;7.30;;
79066;SDS011;68470;50.224;14.348;2023-05-07T03:45:05;11.40;;;6.20;;
79066;SDS011;68470;50.224;14.348;2023-05-07T03:47:31;11.68;;;6.45;;
79066;SDS011;68470;50.224;14.348;2023-05-07T03:49:57;11.65;;;6.38;;
79066;SDS011;68470;50.224;14.348;2023-05-07T03:52:23;13.10;;;6.38;;
79066;SDS011;68470;50.224;14.348;2023-05-07T03:54:52;12.40;;;5.45;;
79066;SDS011;68470;50.224;14.348;2023-05-07T03:57:18;8.98;;;5.50;;
79066;SDS011;68470;50.224;14.348;2023-05-07T03:59:44;10.07;;;4.70;;
79066;SDS011;68470;50.224;14.348;2023-05-07T04:02:13;9.43;;;5.22;;
79066;SDS011;68470;50.224;14.348;2023-05-07T04:04:50;9.65;;;6.20;;
79066;SDS011;68470;50.224;14.348;2023-05-07T04:07:15;10.45;;;5.82;;
79066;SDS011;68470;50.224;14.348;2023-05-07T04:09:41;11.50;;;5.75;;
79066;SDS011;68470;50.224;14.348;2023-05-07T04:12:13;11.95;;;6.53;;
79066;SDS011;68470;50.224;14.348;2023-05-07T04:14:41;10.88;;;6.53;;
79066;SDS011;68470;50.224;14.348;2023-05-07T04:17:10;11.18;;;6.07;;
79066;SDS011;68470;50.224;14.348;2023-05-07T04:19:37;10.35;;;6.45;;
79066;SDS011;68470;50.224;14.348;2023-05-07T04:22:11;10.18;;;5.82;;
79066;SDS011;68470;50.224;14.348;2023-05-07T04:24:43;12.45;;;6.05;;
79066;SDS011;68470;50.224;14.348;2023-05-07T04:27:09;10.45;;;6.13;;
79066;SDS011;68470;50.224;14.348;2023-05-07T04:29:38;8.18;;;4.93;;
79066;SDS011;68470;50.224;14.348;2023-05-07T04:32:07;11.65;;;6.38;;
79066;SDS011;68470;50.224;14.348;2023-05-07T04:34:35;9.43;;;5.22;;
79066;SDS011;68470;50.224;14.348;2023-05-07T04:37:02;12.55;;;6.07;;
79066;SDS011;68470;50.224;14.348;2023-05-07T04:39:40;12.80;;;5.82;;
79066;SDS011;68470;50.224;14.348;2023-05-07T04:42:05;10.00;;;5.75;;
79066;SDS011;68470;50.224;14.348;2023-05-07T04:44:34;9.23;;;5.45;;
79066;SDS011;68470;50.224;14.348;2023-05-07T04:47:06;8.60;;;4.85;;
79066;SDS011;68470;50.224;14.348;2023-05-07T04:49:33;12.40;;;5.90;;
79066;SDS011;68470;50.224;14.348;2023-05-07T04:52:00;9.70;;;5.72;;
79066;SDS011;68470;50.224;14.348;2023-05-07T04:54:27;8.88;;;4.93;;
79066;SDS011;68470;50.224;14.348;2023-05-07T04:57:00;9.40;;;4.97;;
79066;SDS011;68470;50.224;14.348;2023-05-07T04:59:32;8.38;;;4.65;;
79066;SDS011;68470;50.224;14.348;2023-05-07T05:02:00;9.90;;;4.65;;
79066;SDS011;68470;50.224;14.348;2023-05-07T05:04:30;6.65;;;4.45;;
79066;SDS011;68470;50.224;14.348;2023-05-07T05:06:56;9.70;;;5.25;;
79066;SDS011;68470;50.224;14.348;2023-05-07T05:09:23;8.68;;;4.72;;
79066;SDS011;68470;50.224;14.348;2023-05-07T05:11:49;6.75;;;4.22;;
79066;SDS011;68470;50.224;14.348;2023-05-07T05:14:23;9.48;;;4.85;;
79066;SDS011;68470;50.224;14.348;2023-05-07T05:16:50;8.40;;;4.32;;
79066;SDS011;68470;50.224;14.348;2023-05-07T05:19:17;8.32;;;5.03;;
79066;SDS011;68470;50.224;14.348;2023-05-07T05:21:46;6.45;;;3.95;;
79066;SDS011;68470;50.224;14.348;2023-05-07T05:24:15;7.32;;;4.55;;
79066;SDS011;68470;50.224;14.348;2023-05-07T05:26:52;7.82;;;4.32;;
79066;SDS011;68470;50.224;14.348;2023-05-07T05:29:22;6.07;;;3.78;;
79066;SDS011;68470;50.224;14.348;2023-05-07T05:31:48;5.97;;;4.05;;
79066;SDS011;68470;50.224;14.348;2023-05-07T05:34:14;6.57;;;4.20;;
79066;SDS011;68470;50.224;14.348;2023-05-07T05:36:40;7.13;;;4.47;;
79066;SDS011;68470;50.224;14.348;2023-05-07T05:39:06;6.25;;;4.13;;
79066;SDS011;68470;50.224;14.348;2023-05-07T05:41:31;6.55;;;4.43;;
79066;SDS011;68470;50.224;14.348;2023-05-07T05:44:04;7.43;;;4.63;;
79066;SDS011;68470;50.224;14.348;2023-05-07T05:46:29;6.47;;;4.70;;
79066;SDS011;68470;50.224;14.348;2023-05-07T05:48:56;6.00;;;4.10;;
79066;SDS011;68470;50.224;14.348;2023-05-07T05:51:24;5.97;;;4.25;;
79066;SDS011;68470;50.224;14.348;2023-05-07T05:53:52;7.68;;;4.80;;
79066;SDS011;68470;50.224;14.348;2023-05-07T05:56:17;5.40;;;4.00;;
79066;SDS011;68470;50.224;14.348;2023-05-07T05:58:43;6.85;;;4.30;;
79066;SDS011;68470;50.224;14.348;2023-05-07T06:01:09;7.22;;;4.70;;
79066;SDS011;68470;50.224;14.348;2023-05-07T06:03:37;7.05;;;4.70;;
79066;SDS011;68470;50.224;14.348;2023-05-07T06:06:03;7.05;;;4.50;;
79066;SDS011;68470;50.224;14.348;2023-05-07T06:08:32;7.20;;;4.43;;
79066;SDS011;68470;50.224;14.348;2023-05-07T06:10:58;7.30;;;4.53;;
79066;SDS011;68470;50.224;14.348;2023-05-07T06:13:26;7.38;;;4.70;;
79066;SDS011;68470;50.224;14.348;2023-05-07T06:15:52;7.13;;;4.90;;
79066;SDS011;68470;50.224;14.348;2023-05-07T06:18:25;7.20;;;4.32;;
79066;SDS011;68470;50.224;14.348;2023-05-07T06:20:51;9.20;;;5.28;;
79066;SDS011;68470;50.224;14.348;2023-05-07T06:23:18;7.70;;;4.18;;
79066;SDS011;68470;50.224;14.348;2023-05-07T06:25:48;10.25;;;4.20;;
79066;SDS011;68470;50.224;14.348;2023-05-07T06:28:18;8.13;;;5.25;;
79066;SDS011;68470;50.224;14.348;2023-05-07T06:30:48;6.13;;;4.85;;
79066;SDS011;68470;50.224;14.348;2023-05-07T06:33:17;5.93;;;4.43;;
79066;SDS011;68470;50.224;14.348;2023-05-07T06:35:44;7.65;;;4.45;;
79066;SDS011;68470;50.224;14.348;2023-05-07T06:38:13;9.65;;;4.63;;
79066;SDS011;68470;50.224;14.348;2023-05-07T06:40:38;9.05;;;4.38;;
79066;SDS011;68470;50.224;14.348;2023-05-07T06:43:04;6.47;;;4.43;;
79066;SDS011;68470;50.224;14.348;2023-05-07T06:45:33;6.97;;;4.05;;
79066;SDS011;68470;50.224;14.348;2023-05-07T06:48:00;7.15;;;4.85;;
79066;SDS011;68470;50.224;14.348;2023-05-07T06:50:32;6.97;;;4.60;;
79066;SDS011;68470;50.224;14.348;2023-05-07T06:52:58;6.32;;;4.43;;
79066;SDS011;68470;50.224;14.348;2023-05-07T06:55:23;6.05;;;3.90;;
79066;SDS011;68470;50.224;14.348;2023-05-07T06:57:50;7.35;;;4.75;;
79066;SDS011;68470;50.224;14.348;2023-05-07T07:00:15;7.93;;;5.18;;
79066;SDS011;68470;50.224;14.348;2023-05-07T07:02:42;6.65;;;4.28;;
79066;SDS011;68470;50.224;14.348;2023-05-07T07:05:07;8.43;;;4.75;;
79066;SDS011;68470;50.224;14.348;2023-05-07T07:07:33;8.63;;;5.28;;
79066;SDS011;68470;50.224;14.348;2023-05-07T07:09:59;7.88;;;4.93;;
79066;SDS011;68470;50.224;14.348;2023-05-07T07:12:29;6.65;;;4.35;;
79066;SDS011;68470;50.224;14.348;2023-05-07T07:14:55;6.43;;;4.60;;
79066;SDS011;68470;50.224;14.348;2023-05-07T07:17:22;8.25;;;5.28;;
79066;SDS011;68470;50.224;14.348;2023-05-07T07:19:48;7.57;;;4.90;;
79066;SDS011;68470;50.224;14.348;2023-05-07T07:22:14;7.22;;;4.35;;
79066;SDS011;68470;50.224;14.348;2023-05-07T07:24:41;7.35;;;4.40;;
79066;SDS011;68470;50.224;14.348;2023-05-07T07:27:08;7.18;;;4.20;;
79066;SDS011;68470;50.224;14.348;2023-05-07T07:29:33;7.10;;;4.47;;
79066;SDS011;68470;50.224;14.348;2023-05-07T07:32:02;6.10;;;4.43;;
79066;SDS011;68470;50.224;14.348;2023-05-07T07:34:27;6.53;;;4.00;;
79066;SDS011;68470;50.224;14.348;2023-05-07T07:36:54;6.78;;;4.35;;
79066;SDS011;68470;50.224;14.348;2023-05-07T07:39:20;7.35;;;4.63;;
79066;SDS011;68470;50.224;14.348;2023-05-07T07:41:46;5.20;;;3.70;;
79066;SDS011;68470;50.224;14.348;2023-05-07T07:44:12;7.25;;;4.57;;
79066;SDS011;68470;50.224;14.348;2023-05-07T07:46:38;5.90;;;4.05;;
79066;SDS011;68470;50.224;14.348;2023-05-07T07:49:04;5.88;;;4.50;;
79066;SDS011;68470;50.224;14.348;2023-05-07T07:51:30;5.88;;;4.13;;
79066;SDS011;68470;50.224;14.348;2023-05-07T07:53:56;6.75;;;4.38;;
79066;SDS011;68470;50.224;14.348;2023-05-07T07:56:24;6.22;;;4.75;;
79066;SDS011;68470;50.224;14.348;2023-05-07T07:58:50;6.45;;;5.07;;
79066;SDS011;68470;50.224;14.348;2023-05-07T08:01:16;7.40;;;4.60;;
79066;SDS011;68470;50.224;14.348;2023-05-07T08:03:42;7.07;;;3.70;;
79066;SDS011;68470;50.224;14.348;2023-05-07T08:06:09;7.82;;;4.70;;
79066;SDS011;68470;50.224;14.348;2023-05-07T08:08:35;6.95;;;4.03;;
79066;SDS011;68470;50.224;14.348;2023-05-07T08:11:01;6.25;;;3.42;;
79066;SDS011;68470;50.224;14.348;2023-05-07T08:13:27;5.28;;;3.80;;
79066;SDS011;68470;50.224;14.348;2023-05-07T08:15:53;5.82;;;3.53;;
79066;SDS011;68470;50.224;14.348;2023-05-07T08:18:19;5.07;;;3.85;;
79066;SDS011;68470;50.224;14.348;2023-05-07T08:20:46;7.25;;;4.10;;
79066;SDS011;68470;50.224;14.348;2023-05-07T08:23:12;7.55;;;4.10;;
79066;SDS011;68470;50.224;14.348;2023-05-07T08:25:38;6.57;;;4.35;;
79066;SDS011;68470;50.224;14.348;2023-05-07T08:28:04;6.68;;;4.32;;
79066;SDS011;68470;50.224;14.348;2023-05-07T08:30:30;5.60;;;4.40;;
79066;SDS011;68470;50.224;14.348;2023-05-07T08:32:56;6.18;;;4.18;;
79066;SDS011;68470;50.224;14.348;2023-05-07T08:35:22;7.57;;;4.65;;
79066;SDS011;68470;50.224;14.348;2023-05-07T08:37:48;6.80;;;4.30;;
79066;SDS011;68470;50.224;14.348;2023-05-07T08:40:14;5.07;;;4.07;;
79066;SDS011;68470;50.224;14.348;2023-05-07T08:42:40;6.00;;;4.00;;
79066;SDS011;68470;50.224;14.348;2023-05-07T08:45:08;5.78;;;3.85;;
79066;SDS011;68470;50.224;14.348;2023-05-07T08:47:55;6.57;;;4.25;;
79066;SDS011;68470;50.224;14.348;2023-05-07T08:50:25;8.05;;;5.30;;
79066;SDS011;68470;50.224;14.348;2023-05-07T08:52:51;9.38;;;4.78;;
79066;SDS011;68470;50.224;14.348;2023-05-07T08:55:17;6.90;;;4.72;;
79066;SDS011;68470;50.224;14.348;2023-05-07T08:57:43;7.43;;;5.05;;
79066;SDS011;68470;50.224;14.348;2023-05-07T09:00:10;7.30;;;4.82;;
79066;SDS011;68470;50.224;14.348;2023-05-07T09:02:36;7.30;;;4.50;;
79066;SDS011;68470;50.224;14.348;2023-05-07T09:05:02;5.65;;;3.95;;
79066;SDS011;68470;50.224;14.348;2023-05-07T09:07:29;6.28;;;4.30;;
79066;SDS011;68470;50.224;14.348;2023-05-07T09:09:56;6.88;;;4.95;;
79066;SDS011;68470;50.224;14.348;2023-05-07T09:12:23;6.38;;;4.57;;
79066;SDS011;68470;50.224;14.348;2023-05-07T09:14:49;6.72;;;4.45;;
79066;SDS011;68470;50.224;14.348;2023-05-07T09:17:15;5.72;;;4.15;;
79066;SDS011;68470;50.224;14.348;2023-05-07T09:19:43;6.50;;;4.75;;
79066;SDS011;68470;50.224;14.348;2023-05-07T09:22:12;6.25;;;4.03;;
79066;SDS011;68470;50.224;14.348;2023-05-07T09:24:38;5.97;;;4.15;;
79066;SDS011;68470;50.224;14.348;2023-05-07T09:27:04;8.45;;;5.25;;
79066;SDS011;68470;50.224;14.348;2023-05-07T09:29:31;6.28;;;4.57;;
79066;SDS011;68470;50.224;14.348;2023-05-07T09:32:03;5.88;;;3.95;;
79066;SDS011;68470;50.224;14.348;2023-05-07T09:34:31;5.45;;;4.32;;
79066;SDS011;68470;50.224;14.348;2023-05-07T09:36:58;6.85;;;4.78;;
79066;SDS011;68470;50.224;14.348;2023-05-07T09:39:31;5.35;;;4.25;;
79066;SDS011;68470;50.224;14.348;2023-05-07T09:42:04;6.60;;;4.60;;
79066;SDS011;68470;50.224;14.348;2023-05-07T09:44:35;6.25;;;4.82;;
79066;SDS011;68470;50.224;14.348;2023-05-07T09:47:02;7.28;;;4.80;;
79066;SDS011;68470;50.224;14.348;2023-05-07T09:49:33;7.10;;;4.65;;
79066;SDS011;68470;50.224;14.348;2023-05-07T09:52:04;7.45;;;4.55;;
79066;SDS011;68470;50.224;14.348;2023-05-07T09:54:35;6.72;;;5.22;;
79066;SDS011;68470;50.224;14.348;2023-05-07T09:57:03;6.40;;;3.67;;
79066;SDS011;68470;50.224;14.348;2023-05-07T09:59:33;7.22;;;4.40;;
79066;SDS011;68470;50.224;14.348;2023-05-07T10:02:03;6.55;;;4.30;;
79066;SDS011;68470;50.224;14.348;2023-05-07T10:04:30;5.93;;;3.95;;
79066;SDS011;68470;50.224;14.348;2023-05-07T10:06:57;8.20;;;4.53;;
79066;SDS011;68470;50.224;14.348;2023-05-07T10:09:25;6.32;;;4.32;;
79066;SDS011;68470;50.224;14.348;2023-05-07T10:11:51;5.45;;;4.13;;
79066;SDS011;68470;50.224;14.348;2023-05-07T10:14:21;6.40;;;4.40;;
79066;SDS011;68470;50.224;14.348;2023-05-07T10:19:17;6.13;;;4.70;;
79066;SDS011;68470;50.224;14.348;2023-05-07T10:21:44;5.53;;;3.80;;
79066;SDS011;68470;50.224;14.348;2023-05-07T10:24:19;5.30;;;3.80;;
79066;SDS011;68470;50.224;14.348;2023-05-07T10:26:48;7.30;;;4.97;;
79066;SDS011;68470;50.224;14.348;2023-05-07T10:29:39;6.97;;;4.25;;
79066;SDS011;68470;50.224;14.348;2023-05-07T10:35:36;6.65;;;4.63;;
79066;SDS011;68470;50.224;14.348;2023-05-07T10:38:06;6.53;;;4.40;;
79066;SDS011;68470;50.224;14.348;2023-05-07T10:40:32;5.13;;;3.47;;
79066;SDS011;68470;50.224;14.348;2023-05-07T10:42:59;5.78;;;4.22;;
79066;SDS011;68470;50.224;14.348;2023-05-07T10:45:27;5.70;;;3.97;;
79066;SDS011;68470;50.224;14.348;2023-05-07T10:50:39;8.40;;;4.80;;
79066;SDS011;68470;50.224;14.348;2023-05-07T10:58:29;5.57;;;4.35;;
79066;SDS011;68470;50.224;14.348;2023-05-07T11:00:57;8.45;;;4.65;;
79066;SDS011;68470;50.224;14.348;2023-05-07T11:03:25;7.03;;;4.72;;
79066;SDS011;68470;50.224;14.348;2023-05-07T11:11:17;6.25;;;4.85;;
79066;SDS011;68470;50.224;14.348;2023-05-07T11:13:43;6.95;;;5.00;;
79066;SDS011;68470;50.224;14.348;2023-05-07T11:16:17;6.45;;;4.70;;
79066;SDS011;68470;50.224;14.348;2023-05-07T11:18:51;8.15;;;5.80;;
79066;SDS011;68470;50.224;14.348;2023-05-07T11:21:37;7.47;;;4.93;;
79066;SDS011;68470;50.224;14.348;2023-05-07T11:24:07;7.05;;;5.20;;
79066;SDS011;68470;50.224;14.348;2023-05-07T11:26:44;6.93;;;5.20;;
79066;SDS011;68470;50.224;14.348;2023-05-07T11:29:18;7.65;;;5.50;;
79066;SDS011;68470;50.224;14.348;2023-05-07T11:31:50;8.10;;;5.15;;
79066;SDS011;68470;50.224;14.348;2023-05-07T11:34:21;6.50;;;4.53;;
79066;SDS011;68470;50.224;14.348;2023-05-07T11:36:50;8.68;;;5.72;;
79066;SDS011;68470;50.224;14.348;2023-05-07T11:39:23;7.20;;;5.03;;
79066;SDS011;68470;50.224;14.348;2023-05-07T11:42:01;8.07;;;4.80;;
79066;SDS011;68470;50.224;14.348;2023-05-07T11:44:43;8.27;;;5.15;;
79066;SDS011;68470;50.224;14.348;2023-05-07T11:47:11;6.78;;;4.68;;
79066;SDS011;68470;50.224;14.348;2023-05-07T11:49:42;7.07;;;5.13;;
79066;SDS011;68470;50.224;14.348;2023-05-07T11:52:10;6.63;;;5.28;;
79066;SDS011;68470;50.224;14.348;2023-05-07T11:54:38;8.25;;;6.10;;
79066;SDS011;68470;50.224;14.348;2023-05-07T11:57:04;6.80;;;5.07;;
79066;SDS011;68470;50.224;14.348;2023-05-07T11:59:37;7.05;;;5.20;;
79066;SDS011;68470;50.224;14.348;2023-05-07T12:02:06;7.55;;;4.65;;
79066;SDS011;68470;50.224;14.348;2023-05-07T12:04:32;6.75;;;4.88;;
79066;SDS011;68470;50.224;14.348;2023-05-07T12:06:58;6.95;;;5.07;;
79066;SDS011;68470;50.224;14.348;2023-05-07T12:09:24;7.55;;;4.85;;
79066;SDS011;68470;50.224;14.348;2023-05-07T12:11:51;7.00;;;4.78;;
79066;SDS011;68470;50.224;14.348;2023-05-07T12:14:17;7.72;;;5.53;;
79066;SDS011;68470;50.224;14.348;2023-05-07T12:16:44;6.80;;;4.82;;
79066;SDS011;68470;50.224;14.348;2023-05-07T12:19:10;7.20;;;4.78;;
79066;SDS011;68470;50.224;14.348;2023-05-07T12:21:40;8.32;;;5.70;;
79066;SDS011;68470;50.224;14.348;2023-05-07T12:24:06;6.13;;;4.25;;
79066;SDS011;68470;50.224;14.348;2023-05-07T12:26:37;7.10;;;5.38;;
79066;SDS011;68470;50.224;14.348;2023-05-07T12:29:04;6.00;;;5.15;;
79066;SDS011;68470;50.224;14.348;2023-05-07T12:31:31;8.70;;;6.60;;
79066;SDS011;68470;50.224;14.348;2023-05-07T12:33:57;7.00;;;5.55;;
79066;SDS011;68470;50.224;14.348;2023-05-07T12:36:23;16.85;;;10.88;;
79066;SDS011;68470;50.224;14.348;2023-05-07T12:38:50;5.72;;;4.00;;
79066;SDS011;68470;50.224;14.348;2023-05-07T12:41:16;6.45;;;4.55;;
79066;SDS011;68470;50.224;14.348;2023-05-07T12:43:44;5.35;;;4.47;;
79066;SDS011;68470;50.224;14.348;2023-05-07T12:46:11;7.63;;;5.25;;
79066;SDS011;68470;50.224;14.348;2023-05-07T12:48:43;7.28;;;5.22;;
79066;SDS011;68470;50.224;14.348;2023-05-07T12:51:11;6.70;;;5.15;;
79066;SDS011;68470;50.224;14.348;2023-05-07T12:53:42;7.38;;;4.90;;
79066;SDS011;68470;50.224;14.348;2023-05-07T12:56:08;5.72;;;5.07;;
79066;SDS011;68470;50.224;14.348;2023-05-07T12:58:34;5.68;;;5.05;;
79066;SDS011;68470;50.224;14.348;2023-05-07T13:01:06;6.38;;;4.28;;
79066;SDS011;68470;50.224;14.348;2023-05-07T13:03:36;4.80;;;4.28;;
79066;SDS011;68470;50.224;14.348;2023-05-07T13:06:07;6.50;;;4.55;;
79066;SDS011;68470;50.224;14.348;2023-05-07T13:08:38;5.38;;;4.63;;
79066;SDS011;68470;50.224;14.348;2023-05-07T13:11:07;6.65;;;4.75;;
79066;SDS011;68470;50.224;14.348;2023-05-07T13:13:34;4.28;;;3.58;;
79066;SDS011;68470;50.224;14.348;2023-05-07T13:16:03;7.40;;;4.80;;
79066;SDS011;68470;50.224;14.348;2023-05-07T13:18:30;6.68;;;3.97;;
79066;SDS011;68470;50.224;14.348;2023-05-07T13:20:57;6.10;;;4.47;;
79066;SDS011;68470;50.224;14.348;2023-05-07T13:23:23;6.20;;;4.88;;
79066;SDS011;68470;50.224;14.348;2023-05-07T13:25:49;5.38;;;4.53;;
79066;SDS011;68470;50.224;14.348;2023-05-07T13:28:15;6.13;;;4.35;;
79066;SDS011;68470;50.224;14.348;2023-05-07T13:30:41;5.18;;;4.68;;
79066;SDS011;68470;50.224;14.348;2023-05-07T13:33:08;6.97;;;5.30;;
79066;SDS011;68470;50.224;14.348;2023-05-07T13:35:34;6.40;;;5.80;;
79066;SDS011;68470;50.224;14.348;2023-05-07T13:38:00;7.55;;;4.93;;
79066;SDS011;68470;50.224;14.348;2023-05-07T13:40:26;6.22;;;4.80;;
79066;SDS011;68470;50.224;14.348;2023-05-07T13:42:51;5.82;;;4.32;;
79066;SDS011;68470;50.224;14.348;2023-05-07T13:45:24;4.70;;;4.10;;
79066;SDS011;68470;50.224;14.348;2023-05-07T13:47:54;4.65;;;4.00;;
79066;SDS011;68470;50.224;14.348;2023-05-07T13:50:21;5.10;;;4.10;;
79066;SDS011;68470;50.224;14.348;2023-05-07T13:52:47;5.15;;;3.78;;
79066;SDS011;68470;50.224;14.348;2023-05-07T13:55:19;5.00;;;4.20;;
79066;SDS011;68470;50.224;14.348;2023-05-07T13:57:47;4.00;;;3.53;;
79066;SDS011;68470;50.224;14.348;2023-05-07T14:00:14;4.78;;;3.70;;
79066;SDS011;68470;50.224;14.348;2023-05-07T14:02:41;4.75;;;3.38;;
79066;SDS011;68470;50.224;14.348;2023-05-07T14:05:07;6.28;;;4.03;;
79066;SDS011;68470;50.224;14.348;2023-05-07T14:07:34;5.63;;;4.22;;
79066;SDS011;68470;50.224;14.348;2023-05-07T14:10:01;5.43;;;3.58;;
79066;SDS011;68470;50.224;14.348;2023-05-07T14:12:27;5.75;;;4.32;;
79066;SDS011;68470;50.224;14.348;2023-05-07T14:14:53;4.38;;;3.22;;
79066;SDS011;68470;50.224;14.348;2023-05-07T14:17:22;6.05;;;4.35;;
79066;SDS011;68470;50.224;14.348;2023-05-07T14:19:50;5.82;;;4.25;;
79066;SDS011;68470;50.224;14.348;2023-05-07T14:22:16;5.30;;;3.65;;
79066;SDS011;68470;50.224;14.348;2023-05-07T14:24:42;4.25;;;3.10;;
79066;SDS011;68470;50.224;14.348;2023-05-07T14:27:09;4.70;;;4.07;;
79066;SDS011;68470;50.224;14.348;2023-05-07T14:29:35;5.47;;;3.70;;
79066;SDS011;68470;50.224;14.348;2023-05-07T14:32:01;4.78;;;4.05;;
79066;SDS011;68470;50.224;14.348;2023-05-07T14:34:28;5.20;;;3.67;;
79066;SDS011;68470;50.224;14.348;2023-05-07T14:36:54;4.85;;;3.75;;
79066;SDS011;68470;50.224;14.348;2023-05-07T14:39:22;5.70;;;3.97;;
79066;SDS011;68470;50.224;14.348;2023-05-07T14:41:48;5.53;;;3.97;;
79066;SDS011;68470;50.224;14.348;2023-05-07T14:44:14;5.75;;;4.07;;
79066;SDS011;68470;50.224;14.348;2023-05-07T14:46:39;7.47;;;3.83;;
79066;SDS011;68470;50.224;14.348;2023-05-07T14:49:06;7.50;;;4.57;;
79066;SDS011;68470;50.224;14.348;2023-05-07T14:51:32;5.95;;;4.60;;
79066;SDS011;68470;50.224;14.348;2023-05-07T14:53:58;6.80;;;4.40;;
79066;SDS011;68470;50.224;14.348;2023-05-07T14:56:24;7.03;;;4.10;;
79066;SDS011;68470;50.224;14.348;2023-05-07T14:58:50;5.90;;;4.28;;
79066;SDS011;68470;50.224;14.348;2023-05-07T15:01:16;7.43;;;4.97;;